Time;durP1;ratioP1;P1;durP2;ratioP2;P2;SDS_P1;SDS_P2;PMS_P1;PMS_P2;Temp;Humidity;BMP_temperature;BMP_pressure;BME280_temperature;BME280_humidity;BME280_pressure;Samples;Min_cycle;Max_cycle;Signal;HPM_P1;HPM_P2
2022/10/24 00:04:43;;;;;;;7.05;4.07;;;;;;;13.51;100.00;96233.81;10453411;28;20215;-85
2022/10/24 00:09:45;;;;;;;4.57;2.72;;;;;;;13.75;100.00;96239.69;10453871;28;20306;-84
2022/10/24 00:14:45;;;;;;;7.30;3.08;;;;;;;13.71;100.00;96252.44;10453213;28;20672;-84
2022/10/24 00:19:46;;;;;;;6.43;3.17;;;;;;;13.78;100.00;96260.38;10454190;28;20203;-84
2022/10/24 00:24:46;;;;;;;10.05;4.40;;;;;;;13.45;100.00;96258.25;10453546;28;20201;-84
2022/10/24 00:29:47;;;;;;;9.05;5.10;;;;;;;13.26;100.00;96261.41;10453311;28;20216;-85
2022/10/24 00:34:47;;;;;;;8.10;4.78;;;;;;;13.39;100.00;96256.34;10453190;28;20204;-84
2022/10/24 00:39:47;;;;;;;9.35;4.88;;;;;;;13.39;100.00;96258.97;10453093;28;20680;-83
2022/10/24 00:44:51;;;;;;;9.52;5.43;;;;;;;13.44;100.00;96253.97;10434915;28;20649;-84
2022/10/24 00:49:59;;;;;;;11.73;5.55;;;;;;;13.49;100.00;96254.25;10458996;28;20553;-85
2022/10/24 00:55:03;;;;;;;10.75;5.80;;;;;;;13.42;100.00;96253.34;10443339;28;20358;-84
2022/10/24 01:00:08;;;;;;;11.45;6.00;;;;;;;13.49;100.00;96266.56;10442299;28;20192;-83
2022/10/24 01:05:09;;;;;;;9.07;5.90;;;;;;;13.54;100.00;96272.09;10459629;28;20196;-84
2022/10/24 01:10:31;;;;;;;10.07;5.05;;;;;;;13.62;100.00;96256.19;10460054;28;20277;-84
2022/10/24 01:15:44;;;;;;;9.43;4.63;;;;;;;13.82;100.00;96264.28;10458506;28;20192;-84
2022/10/24 01:20:56;;;;;;;6.13;3.80;;;;;;;14.01;100.00;96262.00;10441703;28;20211;-85
2022/10/24 01:26:33;;;;;;;8.32;4.82;;;;;;;14.11;100.00;96266.97;10459152;28;20566;-84
2022/10/24 01:31:51;;;;;;;9.75;4.63;;;;;;;14.13;100.00;96273.66;10455244;28;20236;-85
2022/10/24 01:36:59;;;;;;;9.30;3.72;;;;;;;14.14;100.00;96256.88;10458740;28;20637;-83
2022/10/24 01:42:01;;;;;;;11.43;4.35;;;;;;;14.15;100.00;96247.97;10440857;28;20680;-83
2022/10/24 01:47:11;;;;;;;14.18;3.90;;;;;;;14.35;100.00;96245.50;10457203;28;20188;-82
2022/10/24 01:52:13;;;;;;;9.75;4.18;;;;;;;14.35;100.00;96236.75;10457508;28;20227;-82
2022/10/24 01:57:13;;;;;;;8.60;4.28;;;;;;;14.45;100.00;96216.97;10439679;28;20279;-83
2022/10/24 02:02:19;;;;;;;10.10;4.82;;;;;;;14.33;100.00;96234.31;10458099;28;20188;-83
2022/10/24 02:07:20;;;;;;;11.52;5.30;;;;;;;14.28;100.00;96236.72;10440008;28;20184;-84
2022/10/24 02:12:23;;;;;;;12.38;5.63;;;;;;;14.06;100.00;96233.31;10456230;28;20231;-83
2022/10/24 02:17:23;;;;;;;9.93;5.65;;;;;;;13.96;100.00;96232.81;10439890;28;20194;-82
2022/10/24 02:22:37;;;;;;;6.65;4.05;;;;;;;13.76;100.00;96238.72;10457561;28;20214;-82
2022/10/24 02:27:40;;;;;;;7.10;4.13;;;;;;;13.70;100.00;96234.19;10456267;28;20214;-82
2022/10/24 02:32:43;;;;;;;8.40;3.55;;;;;;;13.58;100.00;96235.69;10455452;28;20262;-83
2022/10/24 02:37:47;;;;;;;9.05;4.25;;;;;;;13.51;100.00;96220.66;10439394;28;20566;-83
2022/10/24 02:42:50;;;;;;;7.90;4.38;;;;;;;13.48;100.00;96221.03;10439293;28;20195;-83
2022/10/24 02:47:55;;;;;;;6.93;3.38;;;;;;;13.62;100.00;96221.16;10439328;28;20207;-83
2022/10/24 02:52:55;;;;;;;7.85;3.88;;;;;;;13.54;100.00;96208.94;10439640;28;20660;-83
2022/10/24 02:57:56;;;;;;;5.45;3.40;;;;;;;13.74;100.00;96198.59;10455274;28;20187;-82
2022/10/24 03:02:56;;;;;;;5.93;3.05;;;;;;;13.60;100.00;96218.72;10456541;28;20195;-83
2022/10/24 03:07:57;;;;;;;6.55;1.88;;;;;;;13.82;100.00;96216.88;10438407;28;20286;-82
2022/10/24 03:12:57;;;;;;;4.10;2.63;;;;;;;13.79;100.00;96219.09;10455357;28;20184;-83
2022/10/24 03:17:57;;;;;;;4.03;2.30;;;;;;;13.75;100.00;96221.28;10456228;28;20237;-82
2022/10/24 03:22:58;;;;;;;6.13;2.45;;;;;;;13.78;100.00;96220.91;10456115;28;20188;-82
2022/10/24 03:27:58;;;;;;;5.80;2.72;;;;;;;13.77;100.00;96229.81;10454468;28;20216;-82
2022/10/24 03:32:59;;;;;;;6.38;2.75;;;;;;;13.69;100.00;96230.75;10455201;28;20665;-83
2022/10/24 03:37:59;;;;;;;8.00;2.97;;;;;;;13.60;100.00;96233.69;10455661;28;20269;-83
2022/10/24 03:42:59;;;;;;;7.60;2.60;;;;;;;13.63;100.00;96241.19;10455432;28;20196;-82
2022/10/24 03:48:00;;;;;;;7.57;3.10;;;;;;;13.60;100.00;96265.25;10455195;28;20213;-82
2022/10/24 03:53:00;;;;;;;10.82;3.35;;;;;;;13.46;100.00;96257.25;10455858;28;20187;-82
2022/10/24 03:58:01;;;;;;;10.60;3.00;;;;;;;13.49;100.00;96256.03;10453670;28;20645;-82
2022/10/24 04:03:01;;;;;;;11.82;3.72;;;;;;;13.42;100.00;96255.19;10435540;28;20245;-82
2022/10/24 04:08:02;;;;;;;11.00;2.97;;;;;;;13.45;100.00;96263.50;10452305;28;20704;-81
2022/10/24 04:13:02;;;;;;;9.63;4.70;;;;;;;13.41;100.00;96270.13;10467793;28;20560;-81
2022/10/24 04:18:03;;;;;;;7.93;3.97;;;;;;;13.29;100.00;96285.56;10478302;28;20239;-82
2022/10/24 04:23:03;;;;;;;9.70;3.40;;;;;;;13.31;100.00;96288.81;10456091;28;20290;-82
2022/10/24 04:28:04;;;;;;;11.55;3.25;;;;;;;13.25;100.00;96276.41;10459657;28;20715;-82
2022/10/24 04:33:04;;;;;;;7.50;3.40;;;;;;;13.30;100.00;96283.75;10458821;28;20233;-82
2022/10/24 04:38:04;;;;;;;10.20;3.25;;;;;;;13.49;100.00;96283.19;10441337;28;20204;-81
2022/10/24 04:43:05;;;;;;;7.43;3.08;;;;;;;13.40;100.00;96278.19;10440831;28;20702;-81
2022/10/24 04:48:05;;;;;;;7.63;3.17;;;;;;;13.58;100.00;96278.59;10457924;28;20215;-82
2022/10/24 04:53:06;;;;;;;12.60;3.75;;;;;;;13.43;100.00;96281.31;10458177;28;20195;-82
2022/10/24 04:58:06;;;;;;;14.27;3.35;;;;;;;13.51;100.00;96273.28;10434456;28;20971;-83
2022/10/24 05:03:07;;;;;;;8.40;3.00;;;;;;;13.58;100.00;96278.59;10456240;28;20192;-82
2022/10/24 05:08:07;;;;;;;9.30;2.85;;;;;;;13.55;100.00;96278.97;10437662;28;20208;-82
2022/10/24 05:13:08;;;;;;;9.95;2.92;;;;;;;13.53;100.00;96286.25;10456015;28;20191;-82
2022/10/24 05:18:09;;;;;;;10.45;2.95;;;;;;;13.50;100.00;96286.63;10453564;28;20611;-82
2022/10/24 05:23:09;;;;;;;9.35;2.80;;;;;;;13.40;100.00;96276.41;10456017;28;20628;-82
2022/10/24 05:28:09;;;;;;;13.30;2.97;;;;;;;13.40;100.00;96265.06;10454254;28;20212;-82
2022/10/24 05:33:10;;;;;;;10.30;3.22;;;;;;;13.31;100.00;96262.50;10453781;28;20238;-82
2022/10/24 05:38:11;;;;;;;11.18;3.15;;;;;;;13.30;100.00;96268.75;10436935;28;20196;-81
2022/10/24 05:43:11;;;;;;;9.00;3.20;;;;;;;13.36;100.00;96283.03;10453748;28;20191;-82
2022/10/24 05:48:12;;;;;;;12.43;3.03;;;;;;;13.32;100.00;96276.47;10454060;28;20224;-82
2022/10/24 05:53:12;;;;;;;11.52;3.40;;;;;;;13.42;100.00;96278.84;10454171;28;20198;-82
2022/10/24 05:58:12;;;;;;;11.88;3.00;;;;;;;13.48;100.00;96278.91;10451894;28;20198;-82
2022/10/24 06:03:13;;;;;;;13.82;3.65;;;;;;;13.46;100.00;96274.84;10453705;28;20194;-82
2022/10/24 06:08:13;;;;;;;10.35;3.50;;;;;;;13.29;100.00;96279.47;10452927;28;20295;-83
2022/10/24 06:13:14;;;;;;;6.53;2.80;;;;;;;13.37;100.00;96282.84;10453358;28;20718;-81
2022/10/24 06:18:15;;;;;;;8.02;3.20;;;;;;;13.38;100.00;96278.38;10451691;28;20579;-82
2022/10/24 06:23:15;;;;;;;9.68;3.00;;;;;;;13.26;100.00;96285.94;10435350;28;20188;-82
2022/10/24 06:28:16;;;;;;;9.32;2.92;;;;;;;13.38;100.00;96288.91;10452329;28;20212;-82
2022/10/24 06:33:16;;;;;;;11.52;3.72;;;;;;;13.37;100.00;96287.31;10452037;28;20712;-82
2022/10/24 06:38:17;;;;;;;6.63;3.17;;;;;;;13.47;100.00;96298.34;10452210;28;20311;-81
2022/10/24 06:43:18;;;;;;;8.73;3.30;;;;;;;13.51;100.00;96304.88;10451737;28;20197;-81
2022/10/24 06:48:18;;;;;;;12.30;3.60;;;;;;;13.59;100.00;96305.75;10450627;28;20310;-82
2022/10/24 06:53:19;;;;;;;8.95;3.20;;;;;;;13.71;100.00;96296.38;10451520;28;20539;-81
2022/10/24 06:58:19;;;;;;;7.30;2.90;;;;;;;13.80;100.00;96310.22;10450950;28;20188;-82
2022/10/24 07:03:19;;;;;;;9.07;4.03;;;;;;;13.91;100.00;96315.00;10450398;28;20184;-81
2022/10/24 07:08:20;;;;;;;16.50;4.18;;;;;;;13.98;100.00;96309.81;10450806;28;20222;-82
2022/10/24 07:13:20;;;;;;;8.88;3.72;;;;;;;14.18;100.00;96300.28;10450970;28;20672;-81
2022/10/24 07:18:21;;;;;;;8.45;3.67;;;;;;;14.33;100.00;96289.63;10450674;28;20188;-82
2022/10/24 07:23:21;;;;;;;9.95;4.25;;;;;;;14.43;100.00;96297.25;10450579;28;20435;-83
2022/10/24 07:28:21;;;;;;;7.97;3.53;;;;;;;14.68;100.00;96289.72;10448655;28;20648;-82
2022/10/24 07:33:22;;;;;;;6.95;3.58;;;;;;;14.63;100.00;96302.69;10450181;28;20224;-83
2022/10/24 07:38:23;;;;;;;11.13;3.67;;;;;;;14.67;100.00;96303.09;10449374;28;20208;-83
2022/10/24 07:43:23;;;;;;;10.73;3.45;;;;;;;14.86;100.00;96294.50;10450207;28;20184;-82
2022/10/24 07:48:24;;;;;;;7.88;3.42;;;;;;;15.02;100.00;96295.22;10449604;28;20671;-82
2022/10/24 07:53:26;;;;;;;8.38;3.80;;;;;;;15.43;100.00;96286.47;10449764;28;20192;-82
2022/10/24 07:58:27;;;;;;;10.18;3.65;;;;;;;15.89;100.00;96272.59;10447428;28;20188;-82
2022/10/24 08:03:27;;;;;;;8.35;3.20;;;;;;;15.97;100.00;96280.34;10449614;28;20211;-81
2022/10/24 08:08:28;;;;;;;6.88;3.38;;;;;;;16.12;100.00;96266.13;10447967;28;20706;-81
2022/10/24 08:13:28;;;;;;;10.10;3.53;;;;;;;16.53;100.00;96262.47;10462771;28;20195;-82
2022/10/24 08:18:29;;;;;;;11.07;3.97;;;;;;;16.42;99.95;96271.81;10472171;28;20184;-82
2022/10/24 08:23:30;;;;;;;11.20;3.88;;;;;;;16.27;100.00;96276.50;10471936;28;20193;-82
2022/10/24 08:28:30;;;;;;;14.63;3.80;;;;;;;16.39;100.00;96285.44;10489422;28;20219;-80
2022/10/24 08:33:31;;;;;;;8.02;3.63;;;;;;;16.33;100.00;96281.78;10489613;28;20816;-82
2022/10/24 08:38:32;;;;;;;4.68;3.15;;;;;;;16.59;99.22;96286.25;10471691;28;20653;-81
2022/10/24 08:43:32;;;;;;;6.43;2.63;;;;;;;16.71;97.89;96273.22;10489476;28;20187;-81
2022/10/24 08:48:42;;;;;;;7.03;3.63;;;;;;;16.64;98.34;96282.97;10471212;28;20716;-82
2022/10/24 08:53:43;;;;;;;12.35;3.60;;;;;;;16.43;100.00;96291.94;10490106;28;20187;-82
2022/10/24 08:58:44;;;;;;;8.00;3.45;;;;;;;16.56;99.32;96275.28;10488935;28;20276;-84
2022/10/24 09:04:35;;;;;;;9.68;4.00;;;;;;;16.55;100.00;96287.69;10468687;28;20192;-84
2022/10/24 09:09:41;;;;;;;11.80;4.43;;;;;;;16.66;99.81;96286.25;10489431;28;20203;-84
2022/10/24 09:14:43;;;;;;;8.77;3.50;;;;;;;16.72;99.06;96281.94;10475014;28;20184;-87
2022/10/24 09:20:08;;;;;;;10.20;4.63;;;;;;;16.51;99.80;96283.81;10493232;28;20519;-86
2022/10/24 09:25:15;;;;;;;11.68;3.63;;;;;;;16.61;100.00;96290.53;10490180;28;20211;-85
2022/10/24 09:30:21;;;;;;;8.90;3.60;;;;;;;16.58;100.00;96289.09;10474329;28;20231;-85
2022/10/24 09:35:24;;;;;;;10.02;4.25;;;;;;;16.70;100.00;96291.94;10523448;28;20206;-85
2022/10/24 09:40:27;;;;;;;9.07;3.78;;;;;;;16.48;100.00;96281.59;10500082;28;20240;-86
2022/10/24 09:45:38;;;;;;;8.18;2.45;;;;;;;16.59;100.00;96280.94;10516765;28;20206;-84
2022/10/24 09:50:41;;;;;;;10.15;3.42;;;;;;;16.57;100.00;96292.78;10516893;28;20225;-85
2022/10/24 09:55:45;;;;;;;8.73;3.25;;;;;;;16.74;98.76;96272.81;10512021;28;20185;-85
2022/10/24 10:01:00;;;;;;;10.23;3.13;;;;;;;16.88;95.66;96243.72;10524582;28;20205;-84
2022/10/24 10:06:14;;;;;;;10.40;3.47;;;;;;;16.86;96.48;96254.50;10506088;28;20191;-85
2022/10/24 10:11:15;;;;;;;14.73;3.33;;;;;;;17.23;92.22;96225.66;10508977;28;20245;-84
2022/10/24 10:16:28;;;;;;;6.57;2.35;;;;;;;17.27;91.11;96239.28;10528748;28;20267;-84
2022/10/24 10:21:51;;;;;;;8.57;2.80;;;;;;;17.25;91.07;96231.56;10443076;28;20188;-84
2022/10/24 10:26:52;;;;;;;9.18;2.33;;;;;;;16.97;93.74;96229.22;10463019;28;20202;-85
2022/10/24 10:32:29;;;;;;;12.73;2.42;;;;;;;17.00;94.30;96239.41;10487949;28;20243;-86
2022/10/24 10:37:34;;;;;;;13.48;3.00;;;;;;;16.81;95.08;96243.69;10441708;28;20590;-87
2022/10/24 10:42:41;;;;;;;8.05;2.42;;;;;;;16.56;95.92;96259.41;10472831;28;20195;-85
2022/10/24 10:47:55;;;;;;;8.07;2.83;;;;;;;16.64;94.21;96263.66;10490230;28;20191;-84
2022/10/24 10:53:07;;;;;;;5.82;2.30;;;;;;;16.58;92.31;96257.34;10472509;28;20561;-84
2022/10/24 10:58:32;;;;;;;7.28;1.92;;;;;;;16.68;86.19;96218.09;10471516;28;20191;-83
2022/10/24 11:03:45;;;;;;;4.50;1.25;;;;;;;16.83;80.45;96174.69;10494149;28;20592;-83
2022/10/24 11:09:04;;;;;;;8.30;1.30;;;;;;;16.84;76.38;96142.72;10485534;28;20226;-85
2022/10/24 11:14:27;;;;;;;3.45;1.20;;;;;;;16.81;74.56;96148.44;10517235;28;20199;-85
2022/10/24 11:19:33;;;;;;;2.28;1.20;;;;;;;16.52;77.26;96124.16;10507621;28;20197;-84
2022/10/24 11:24:44;;;;;;;2.38;1.00;;;;;;;16.67;73.55;96081.56;10494595;28;20249;-85
2022/10/24 11:29:52;;;;;;;0.73;0.73;;;;;;;16.68;72.38;96046.16;10491752;28;20235;-85
2022/10/24 11:35:05;;;;;;;4.28;0.80;;;;;;;17.18;64.57;95944.09;10492196;28;20210;-85
2022/10/24 11:40:11;;;;;;;0.45;0.45;;;;;;;17.03;64.97;95963.78;10490139;28;20678;-85
2022/10/24 11:45:20;;;;;;;1.35;0.60;;;;;;;16.91;65.59;95970.78;10492734;28;20852;-86
2022/10/24 11:50:29;;;;;;;0.47;0.43;;;;;;;16.87;64.62;95953.72;10492411;28;20281;-86
2022/10/24 11:55:39;;;;;;;1.95;0.80;;;;;;;16.91;63.77;95925.81;10492251;28;20268;-85
2022/10/24 12:01:04;;;;;;;1.95;0.68;;;;;;;17.08;60.64;95912.84;10475000;28;20274;-85
2022/10/24 12:06:16;;;;;;;1.48;0.77;;;;;;;16.89;61.99;95960.41;10473294;28;20194;-84
2022/10/24 12:11:55;;;;;;;0.57;0.25;;;;;;;17.15;59.96;95896.88;10491304;28;20254;-85
2022/10/24 12:17:14;;;;;;;1.85;0.50;;;;;;;17.01;60.87;95918.16;10489409;28;20562;-86
2022/10/24 12:22:22;;;;;;;2.70;0.40;;;;;;;17.03;61.31;95963.78;10491562;28;20187;-84
2022/10/24 12:27:30;;;;;;;1.83;0.40;;;;;;;16.77;63.39;96005.22;10491283;28;20651;-85
2022/10/24 12:32:39;;;;;;;0.85;0.40;;;;;;;16.71;64.41;96034.38;10459913;28;20235;-85
2022/10/24 12:37:40;;;;;;;0.30;0.30;;;;;;;16.68;65.28;96067.34;10468237;22;20765;-59
2022/10/24 12:43:00;;;;;;;0.40;0.40;;;;;;;16.52;67.01;96075.72;10463857;28;20192;-62
2022/10/24 12:48:20;;;;;;;1.73;0.95;;;;;;;16.07;69.97;96102.91;10414700;28;20276;-61
2022/10/24 12:53:30;;;;;;;1.38;1.05;;;;;;;15.97;71.71;96102.50;10462789;28;20610;-63
2022/10/24 12:58:33;;;;;;;2.65;1.15;;;;;;;15.98;71.21;96089.09;10467219;28;20200;-61
2022/10/24 13:03:36;;;;;;;1.65;0.50;;;;;;;15.89;72.42;96092.97;10455202;28;20646;-61
2022/10/24 13:08:50;;;;;;;0.52;0.52;;;;;;;15.80;73.49;96102.13;10454940;28;20231;-61
2022/10/24 13:14:05;;;;;;;0.40;0.40;;;;;;;15.75;73.37;96105.34;10453369;28;20191;-61
2022/10/24 13:19:05;;;;;;;0.47;0.47;;;;;;;15.83;73.24;96117.56;10450500;28;20204;-60
2022/10/24 13:24:18;;;;;;;2.80;0.60;;;;;;;15.81;73.46;96104.56;10454221;28;20257;-62
2022/10/24 13:29:24;;;;;;;1.95;0.70;;;;;;;15.76;74.36;96124.63;10454429;28;20683;-62
2022/10/24 13:34:42;;;;;;;2.28;0.60;;;;;;;15.91;72.74;96098.88;10453839;28;20281;-59
2022/10/24 13:39:51;;;;;;;29.40;16.27;;;;;;;15.84;73.92;96116.56;10455170;28;20710;-62
2022/10/24 13:44:57;;;;;;;25.08;15.75;;;;;;;15.87;73.34;96111.66;10452686;28;20242;-62
2022/10/24 13:50:05;;;;;;;16.13;9.95;;;;;;;15.78;74.38;96128.75;10452018;28;20227;-61
2022/10/24 13:55:17;;;;;;;3.00;2.70;;;;;;;15.80;74.11;96129.38;10468706;28;20202;-62
2022/10/24 14:00:30;;;;;;;2.70;2.15;;;;;;;15.82;74.45;96132.63;10488556;28;20214;-61
2022/10/24 14:05:37;;;;;;;5.10;4.60;;;;;;;15.87;73.89;96132.81;10473641;28;20194;-62
2022/10/24 14:10:37;;;;;;;2.45;2.25;;;;;;;15.74;73.96;96138.03;10483774;28;20693;-61
2022/10/24 14:15:46;;;;;;;1.20;0.70;;;;;;;15.68;74.69;96142.34;10470500;28;20192;-61
2022/10/24 14:20:58;;;;;;;0.77;0.75;;;;;;;15.55;75.92;96154.72;10459153;28;20436;-61
2022/10/24 14:26:08;;;;;;;1.15;0.63;;;;;;;15.55;75.98;96139.69;10451490;28;20685;-60
2022/10/24 14:31:20;;;;;;;3.28;0.82;;;;;;;15.25;77.23;96155.88;10450042;28;20299;-59
2022/10/24 14:36:23;;;;;;;3.45;0.73;;;;;;;15.30;77.16;96193.03;10446182;28;20240;-60
2022/10/24 14:41:29;;;;;;;2.88;0.90;;;;;;;15.03;78.51;96178.94;10444982;28;20292;-60
2022/10/24 14:46:36;;;;;;;2.42;0.70;;;;;;;14.83;80.40;96181.50;10409442;28;20271;-60
2022/10/24 14:51:39;;;;;;;1.30;0.70;;;;;;;14.71;81.87;96189.16;10426681;28;20251;-60
2022/10/24 14:56:39;;;;;;;0.95;0.70;;;;;;;14.50;83.24;96203.22;10441296;28;20249;-60
2022/10/24 15:01:40;;;;;;;1.10;0.80;;;;;;;14.54;83.59;96207.09;10441649;28;20645;-61
2022/10/24 15:06:42;;;;;;;3.60;0.75;;;;;;;14.54;83.90;96214.19;10441748;28;20192;-62
2022/10/24 15:11:47;;;;;;;2.53;0.90;;;;;;;14.38;84.95;96210.84;10400844;28;20279;-60
2022/10/24 15:16:47;;;;;;;3.28;0.98;;;;;;;14.41;84.71;96204.34;10418069;28;20277;-59
2022/10/24 15:21:47;;;;;;;0.90;0.90;;;;;;;14.33;85.03;96217.69;10403176;28;20824;-60
2022/10/24 15:26:48;;;;;;;1.05;0.77;;;;;;;14.35;85.10;96220.94;10398614;28;20654;-61
2022/10/24 15:31:50;;;;;;;4.65;1.17;;;;;;;14.31;85.24;96225.78;10399984;28;20219;-61
2022/10/24 15:36:51;;;;;;;2.60;0.70;;;;;;;14.38;85.70;96233.72;10402565;28;20240;-60
2022/10/24 15:41:52;;;;;;;1.38;1.27;;;;;;;14.48;85.87;96228.94;10402274;28;20240;-61
2022/10/24 15:46:53;;;;;;;2.17;0.98;;;;;;;14.62;85.53;96233.34;10396421;28;20197;-61
2022/10/24 15:51:54;;;;;;;3.63;1.15;;;;;;;14.79;85.72;96233.00;10361700;28;20233;-57
2022/10/24 15:56:54;;;;;;;9.90;4.85;;;;;;;14.68;87.02;96244.09;10384774;28;20271;-57
2022/10/24 16:01:57;;;;;;;35.00;18.00;;;;;;;14.53;88.89;96242.38;10421505;28;20208;-59
2022/10/24 16:06:57;;;;;;;7.90;5.18;;;;;;;14.47;90.62;96248.38;10438963;28;20257;-60
2022/10/24 16:11:57;;;;;;;2.70;1.73;;;;;;;14.42;92.39;96254.22;10443805;28;20208;-58
2022/10/24 16:16:58;;;;;;;3.40;3.10;;;;;;;14.40;93.67;96258.91;10445477;28;20248;-60
2022/10/24 16:21:59;;;;;;;5.15;2.00;;;;;;;14.33;95.44;96265.94;10449074;28;20709;-58
2022/10/24 16:27:00;;;;;;;1.67;1.42;;;;;;;14.41;95.91;96263.16;10426595;28;20322;-60
2022/10/24 16:32:00;;;;;;;5.72;1.20;;;;;;;14.27;97.74;96259.63;10428558;28;20219;-60
2022/10/24 16:37:00;;;;;;;3.63;1.60;;;;;;;14.06;99.94;96263.09;10427173;28;20215;-61
2022/10/24 16:42:03;;;;;;;4.72;1.80;;;;;;;13.99;100.00;96280.66;10419680;28;20211;-58
2022/10/24 16:47:04;;;;;;;2.88;1.70;;;;;;;13.93;100.00;96286.66;10409127;28;20193;-61
2022/10/24 16:52:04;;;;;;;3.08;1.50;;;;;;;13.88;100.00;96274.06;10407734;28;21028;-60
2022/10/24 16:57:05;;;;;;;3.75;1.70;;;;;;;13.64;100.00;96275.22;10404535;28;20204;-61
2022/10/24 17:02:07;;;;;;;3.80;1.88;;;;;;;13.61;100.00;96280.06;10408997;28;20239;-61
2022/10/24 17:07:10;;;;;;;5.93;2.03;;;;;;;13.79;100.00;96280.44;10408032;28;20203;-61
2022/10/24 17:12:11;;;;;;;3.83;1.70;;;;;;;13.71;100.00;96286.66;10407696;28;20224;-60
2022/10/24 17:17:12;;;;;;;3.70;1.73;;;;;;;13.84;100.00;96291.25;10407948;28;20180;-60
2022/10/24 17:22:12;;;;;;;4.57;2.00;;;;;;;13.96;100.00;96278.38;10406813;28;20263;-60
2022/10/24 17:27:14;;;;;;;5.75;1.90;;;;;;;13.84;100.00;96274.63;10417610;28;20892;-61
2022/10/24 17:32:14;;;;;;;5.30;1.90;;;;;;;13.71;100.00;96272.69;10442558;28;20298;-60
2022/10/24 17:37:31;;;;;;;7.70;1.98;;;;;;;13.76;100.00;96285.28;10445373;28;20610;-61
2022/10/24 17:42:33;;;;;;;3.50;2.05;;;;;;;13.71;100.00;96273.50;10405881;28;20666;-60
2022/10/24 17:47:33;;;;;;;13.73;6.82;;;;;;;13.71;100.00;96277.94;10425006;28;20265;-60
2022/10/24 17:52:33;;;;;;;4.10;2.50;;;;;;;13.68;100.00;96276.50;10434105;28;20355;-60
2022/10/24 17:57:34;;;;;;;5.13;2.08;;;;;;;13.78;100.00;96284.06;10420819;28;20627;-61
2022/10/24 18:02:34;;;;;;;7.85;3.15;;;;;;;13.71;100.00;96285.84;10405843;28;20242;-60
2022/10/24 18:07:35;;;;;;;3.92;2.40;;;;;;;13.62;100.00;96302.75;10407164;28;20189;-60
2022/10/24 18:12:37;;;;;;;6.93;2.50;;;;;;;13.54;100.00;96303.69;10405868;28;20220;-61
2022/10/24 18:17:38;;;;;;;3.80;2.75;;;;;;;13.46;100.00;96307.25;10405301;28;20294;-61
2022/10/24 18:22:38;;;;;;;5.25;2.42;;;;;;;13.49;100.00;96314.78;10411552;28;20298;-61
2022/10/24 18:27:39;;;;;;;3.47;2.17;;;;;;;13.45;100.00;96321.38;10428173;28;20192;-59
2022/10/24 18:32:40;;;;;;;6.45;2.85;;;;;;;13.53;100.00;96329.16;10433568;28;20216;-62
2022/10/24 18:37:40;;;;;;;7.13;2.30;;;;;;;13.64;100.00;96324.44;10429960;28;20231;-59
2022/10/24 18:42:49;;;;;;;5.82;2.60;;;;;;;13.77;100.00;96319.31;10430849;28;20173;-60
2022/10/24 18:47:50;;;;;;;6.00;2.75;;;;;;;13.69;100.00;96319.41;10435034;28;20307;-60
2022/10/24 18:53:03;;;;;;;10.40;3.40;;;;;;;13.84;100.00;96312.31;10449255;28;20226;-61
2022/10/24 18:58:03;;;;;;;4.35;2.30;;;;;;;13.93;100.00;96307.72;10435199;28;20209;-59
2022/10/24 19:03:22;;;;;;;5.80;2.40;;;;;;;13.97;100.00;96311.63;10441023;28;20200;-61
2022/10/24 19:08:24;;;;;;;7.82;2.97;;;;;;;13.92;100.00;96306.13;10434186;28;20212;-61
2022/10/24 19:13:29;;;;;;;6.70;2.90;;;;;;;13.89;100.00;96311.75;10425220;28;20292;-60
2022/10/24 19:18:32;;;;;;;4.90;2.30;;;;;;;13.87;100.00;96306.69;10445670;28;20212;-61
2022/10/24 19:23:32;;;;;;;10.70;2.92;;;;;;;13.72;100.00;96319.06;10448311;28;20192;-61
2022/10/24 19:28:33;;;;;;;6.22;2.80;;;;;;;13.66;100.00;96319.78;10424522;28;20220;-61
2022/10/24 19:33:33;;;;;;;8.90;2.70;;;;;;;13.66;100.00;96322.41;10449068;28;20729;-61
2022/10/24 19:38:34;;;;;;;4.57;2.50;;;;;;;13.60;100.00;96318.75;10448860;28;20615;-60
2022/10/24 19:43:34;;;;;;;4.65;2.45;;;;;;;13.53;100.00;96334.44;10448585;28;20196;-60
2022/10/24 19:48:36;;;;;;;7.78;3.00;;;;;;;13.64;100.00;96334.97;10446512;28;20216;-60
2022/10/24 19:53:39;;;;;;;4.25;2.33;;;;;;;13.49;100.00;96333.19;10446845;28;20227;-60
2022/10/24 19:58:40;;;;;;;5.32;2.50;;;;;;;13.61;100.00;96325.63;10446469;28;20223;-61
2022/10/24 20:03:42;;;;;;;8.88;2.85;;;;;;;13.46;100.00;96335.34;10447003;28;20298;-61
2022/10/24 20:08:45;;;;;;;5.47;2.35;;;;;;;13.47;100.00;96331.72;10446780;28;20650;-60
2022/10/24 20:13:46;;;;;;;5.88;2.47;;;;;;;13.37;100.00;96335.47;10446618;28;20203;-60
2022/10/24 20:18:46;;;;;;;4.85;2.15;;;;;;;13.33;100.00;96343.88;10446627;28;20215;-60
2022/10/24 20:23:47;;;;;;;5.68;2.60;;;;;;;13.38;100.00;96337.09;10446159;28;20214;-61
2022/10/24 20:28:49;;;;;;;3.25;2.05;;;;;;;13.22;100.00;96353.03;10447383;28;20594;-62
2022/10/24 20:33:50;;;;;;;5.93;2.17;;;;;;;13.29;100.00;96347.88;10447509;28;20193;-62
2022/10/24 20:38:50;;;;;;;3.88;2.63;;;;;;;13.25;100.00;96341.34;10447141;28;20236;-62
2022/10/24 20:43:52;;;;;;;4.88;2.20;;;;;;;13.12;100.00;96350.66;10447673;28;20203;-62
2022/10/24 20:48:52;;;;;;;5.85;2.50;;;;;;;13.05;100.00;96360.31;10447027;28;20718;-61
2022/10/24 20:53:53;;;;;;;8.05;2.22;;;;;;;12.93;100.00;96365.19;10447173;28;20191;-61
2022/10/24 20:58:54;;;;;;;4.22;1.98;;;;;;;13.08;100.00;96352.06;10447218;28;20645;-61
2022/10/24 21:03:56;;;;;;;8.65;2.45;;;;;;;12.98;100.00;96365.44;10448626;28;20662;-60
2022/10/24 21:08:59;;;;;;;3.95;1.90;;;;;;;12.91;100.00;96361.09;10453903;28;20819;-61
2022/10/24 21:14:00;;;;;;;5.55;2.38;;;;;;;12.72;100.00;96363.25;10454890;28;20245;-61
2022/10/24 21:19:01;;;;;;;9.20;2.30;;;;;;;12.70;100.00;96364.44;10454121;28;20204;-62
2022/10/24 21:24:01;;;;;;;14.05;2.05;;;;;;;12.67;100.00;96370.84;10454307;28;20211;-61
2022/10/24 21:29:02;;;;;;;5.85;2.20;;;;;;;12.67;100.00;96376.91;10453711;28;21042;-61
2022/10/24 21:34:02;;;;;;;4.80;2.03;;;;;;;12.57;100.00;96381.63;10454239;28;20198;-61
2022/10/24 21:39:03;;;;;;;7.88;2.33;;;;;;;12.54;100.00;96376.72;10453117;28;20235;-62
2022/10/24 21:44:03;;;;;;;6.93;1.83;;;;;;;12.64;100.00;96363.31;10453483;28;20669;-62
2022/10/24 21:49:03;;;;;;;4.60;1.83;;;;;;;12.52;100.00;96368.19;10452925;28;20694;-62
2022/10/24 21:54:06;;;;;;;9.52;1.90;;;;;;;12.46;100.00;96380.22;10452742;28;20670;-61
2022/10/24 21:59:10;;;;;;;7.30;1.85;;;;;;;12.62;100.00;96367.94;10452856;28;20261;-60
2022/10/24 22:04:12;;;;;;;4.50;1.90;;;;;;;12.45;100.00;96369.88;10452809;28;20192;-61
2022/10/24 22:09:16;;;;;;;6.03;1.70;;;;;;;12.56;100.00;96379.97;10452074;28;20223;-60
2022/10/24 22:14:16;;;;;;;4.32;2.38;;;;;;;12.48;100.00;96372.97;10451789;28;20613;-61
2022/10/24 22:19:17;;;;;;;4.82;1.75;;;;;;;12.40;100.00;96377.47;10452036;28;20257;-62
2022/10/24 22:24:20;;;;;;;4.25;1.58;;;;;;;12.43;100.00;96377.94;10451861;28;20551;-61
2022/10/24 22:29:21;;;;;;;8.50;1.75;;;;;;;12.57;100.00;96381.63;10451083;28;20240;-61
2022/10/24 22:34:24;;;;;;;8.02;2.13;;;;;;;12.62;100.00;96376.66;10451917;28;20242;-60
2022/10/24 22:39:24;;;;;;;7.95;2.03;;;;;;;12.60;100.00;96383.91;10450850;28;20236;-60
2022/10/24 22:44:25;;;;;;;6.28;1.98;;;;;;;12.69;100.00;96378.56;10451075;28;20200;-60
2022/10/24 22:49:54;;;;;;;8.90;2.15;;;;;;;12.74;100.00;96386.72;10450080;28;20227;-60
2022/10/24 22:54:55;;;;;;;5.63;2.08;;;;;;;12.77;100.00;96381.09;10429414;28;20203;-60
2022/10/24 22:59:56;;;;;;;13.07;2.00;;;;;;;12.71;100.00;96377.41;10468546;22;20250;-63
2022/10/24 23:05:02;;;;;;;7.35;2.22;;;;;;;12.72;100.00;96394.78;10412918;28;20193;-61
2022/10/24 23:10:05;;;;;;;6.03;1.80;;;;;;;12.78;100.00;96394.06;10412277;28;20722;-63
2022/10/24 23:15:06;;;;;;;6.03;2.10;;;;;;;12.82;100.00;96392.72;10395262;28;20184;-63
2022/10/24 23:20:48;;;;;;;8.93;1.98;;;;;;;12.99;100.00;96396.00;10411921;28;20219;-63